createdAt,value
2022-08-12T00:01:12.755Z,18.29
2022-08-12T00:03:58.902Z,18.29
2022-08-12T00:06:47.032Z,18.34
2022-08-12T00:09:36.888Z,18.39
2022-08-12T00:12:40.843Z,18.43
2022-08-12T00:15:39.763Z,18.47
2022-08-12T00:18:28.827Z,18.49
2022-08-12T00:21:14.842Z,18.54
2022-08-12T00:24:01.007Z,18.55
2022-08-12T00:26:47.118Z,18.49
2022-08-12T00:29:33.381Z,18.43
2022-08-12T00:32:35.771Z,18.40
2022-08-12T00:35:28.404Z,18.40
2022-08-12T00:38:23.545Z,18.45
2022-08-12T00:41:09.454Z,18.50
2022-08-12T00:43:36.949Z,18.55
2022-08-12T00:46:22.796Z,18.60
2022-08-12T00:48:51.083Z,18.67
2022-08-12T00:51:21.139Z,18.70
2022-08-12T00:53:49.582Z,18.74
2022-08-12T00:56:19.080Z,18.73
2022-08-12T00:58:50.443Z,18.71
2022-08-12T01:01:20.416Z,18.72
2022-08-12T01:04:08.156Z,18.73
2022-08-12T01:06:55.186Z,18.73
2022-08-12T01:09:41.267Z,18.77
2022-08-12T01:12:09.854Z,18.80
2022-08-12T01:14:37.808Z,18.81
2022-08-12T01:17:05.458Z,18.72
2022-08-12T01:19:33.536Z,18.70
2022-08-12T01:22:30.837Z,18.66
2022-08-12T01:25:12.879Z,18.61
2022-08-12T01:27:40.697Z,18.61
2022-08-12T01:30:13.181Z,18.58
2022-08-12T01:32:41.993Z,18.60
2022-08-12T01:35:16.336Z,18.61
2022-08-12T01:38:06.101Z,18.59
2022-08-12T01:40:38.225Z,18.55
2022-08-12T01:43:09.671Z,18.55
2022-08-12T01:45:47.621Z,18.54
2022-08-12T01:48:39.247Z,18.52
2022-08-12T01:52:20.856Z,18.49
2022-08-12T01:54:39.344Z,18.51
2022-08-12T01:57:57.852Z,18.50
2022-08-12T02:00:17.011Z,18.52
2022-08-12T02:03:10.929Z,18.50
2022-08-12T02:06:38.394Z,18.51
2022-08-12T02:09:26.427Z,18.46
2022-08-12T02:12:14.767Z,18.43
2022-08-12T02:14:59.130Z,18.40
2022-08-12T02:17:57.002Z,18.38
2022-08-12T02:20:59.789Z,18.39
2022-08-12T02:23:28.563Z,18.38
2022-08-12T02:26:03.955Z,18.39
2022-08-12T02:28:31.570Z,18.41
2022-08-12T02:31:05.932Z,18.38
2022-08-12T02:33:34.738Z,18.39
2022-08-12T02:36:04.319Z,18.42
2022-08-12T02:38:32.093Z,18.44
2022-08-12T02:41:03.907Z,18.42
2022-08-12T02:43:37.618Z,18.43
2022-08-12T02:46:15.131Z,18.44
2022-08-12T02:49:22.473Z,18.47
2022-08-12T02:51:50.195Z,18.46
2022-08-12T02:54:19.997Z,18.46
2022-08-12T02:56:50.833Z,18.45
2022-08-12T02:59:22.908Z,18.48
2022-08-12T03:01:56.638Z,18.46
2022-08-12T03:04:46.501Z,18.46
2022-08-12T03:07:56.550Z,18.47
2022-08-12T03:10:36.803Z,18.51
2022-08-12T03:13:07.727Z,18.49
2022-08-12T03:15:35.955Z,18.49
2022-08-12T03:18:28.255Z,18.49
2022-08-12T03:20:58.820Z,18.50
2022-08-12T03:23:29.704Z,18.48
2022-08-12T03:26:02.699Z,18.44
2022-08-12T03:28:50.129Z,18.46
2022-08-12T03:31:20.906Z,18.49
2022-08-12T03:34:01.660Z,18.47
2022-08-12T03:36:34.392Z,18.46
2022-08-12T03:39:23.001Z,18.46
2022-08-12T03:42:06.880Z,18.46
2022-08-12T03:45:01.035Z,18.47
2022-08-12T03:48:07.336Z,18.47
2022-08-12T03:50:53.279Z,18.48
2022-08-12T03:53:46.369Z,18.48
2022-08-12T03:56:33.196Z,18.51
2022-08-12T03:59:21.282Z,18.51
2022-08-12T04:01:52.063Z,18.48
2022-08-12T04:04:23.015Z,18.50
2022-08-12T04:06:50.995Z,18.51
2022-08-12T04:09:22.418Z,18.48
2022-08-12T04:12:08.392Z,18.47
2022-08-12T04:14:36.633Z,18.46
2022-08-12T04:17:05.069Z,18.48
2022-08-12T04:19:32.527Z,18.49
2022-08-12T04:22:01.861Z,18.48
2022-08-12T04:24:35.716Z,18.46
2022-08-12T04:27:07.911Z,18.45
2022-08-12T04:30:31.436Z,18.48
2022-08-12T04:32:25.698Z,18.48
2022-08-12T04:34:54.163Z,18.48
2022-08-12T04:37:22.752Z,18.50
2022-08-12T04:39:51.642Z,18.52
2022-08-12T04:42:21.396Z,18.51
2022-08-12T04:44:49.357Z,18.52
2022-08-12T04:47:16.933Z,18.53
2022-08-12T04:49:46.234Z,18.56
2022-08-12T04:52:14.726Z,18.59
2022-08-12T04:54:43.397Z,18.65
2022-08-12T04:57:10.992Z,18.73
2022-08-12T04:59:47.047Z,18.78
2022-08-12T05:02:20.950Z,18.81
2022-08-12T05:04:55.313Z,18.83
2022-08-12T05:07:23.703Z,18.76
2022-08-12T05:09:59.374Z,18.64
2022-08-12T05:12:42.708Z,18.52
2022-08-12T05:15:27.368Z,18.44
2022-08-12T05:18:00.250Z,18.39
2022-08-12T05:20:30.466Z,18.30
2022-08-12T05:23:15.036Z,18.27
2022-08-12T05:25:47.094Z,18.25
2022-08-12T05:28:16.269Z,18.27
2022-08-12T05:30:45.289Z,18.34
2022-08-12T05:33:15.123Z,18.38
2022-08-12T05:35:45.279Z,18.39
2022-08-12T05:38:34.387Z,18.45
2022-08-12T05:41:05.848Z,18.50
2022-08-12T05:43:34.484Z,18.48
2022-08-12T05:46:01.908Z,18.37
2022-08-12T05:48:32.669Z,18.33
2022-08-12T05:51:03.068Z,18.32
2022-08-12T05:53:30.858Z,18.31
2022-08-12T05:55:58.271Z,18.33
2022-08-12T05:58:25.886Z,18.37
2022-08-12T06:00:56.611Z,18.39
2022-08-12T06:03:25.123Z,18.38
2022-08-12T06:05:55.671Z,18.35
2022-08-12T06:08:25.159Z,18.41
2022-08-12T06:10:53.718Z,18.40
2022-08-12T06:13:28.734Z,18.38
2022-08-12T06:16:16.893Z,18.47
2022-08-12T06:18:45.529Z,18.57
2022-08-12T06:21:17.376Z,18.66
2022-08-12T06:23:46.049Z,18.80
2022-08-12T06:26:16.343Z,18.95
2022-08-12T06:28:48.601Z,19.02
2022-08-12T06:31:26.981Z,19.11
2022-08-12T06:34:00.964Z,19.18
2022-08-12T06:36:44.151Z,19.23
2022-08-12T06:39:14.793Z,19.31
2022-08-12T06:42:05.080Z,19.40
2022-08-12T06:44:49.872Z,19.45
2022-08-12T06:47:19.644Z,19.45
2022-08-12T06:49:49.087Z,19.54
2022-08-12T06:52:16.939Z,19.61
2022-08-12T06:54:45.372Z,19.63
2022-08-12T06:58:04.436Z,19.75
2022-08-12T07:00:00.778Z,19.90
2022-08-12T07:02:28.464Z,20.11
2022-08-12T07:04:55.734Z,20.26
2022-08-12T07:07:23.197Z,20.39
2022-08-12T07:09:59.523Z,20.50
2022-08-12T07:12:35.482Z,20.62
2022-08-12T07:15:04.625Z,20.70
2022-08-12T07:17:36.991Z,20.79
2022-08-12T07:20:09.810Z,20.89
2022-08-12T07:22:38.439Z,20.90
2022-08-12T07:25:25.654Z,20.89
2022-08-12T07:27:54.622Z,20.94
2022-08-12T07:30:22.623Z,21.09
2022-08-12T07:32:51.221Z,21.08
2022-08-12T07:35:19.777Z,21.07
2022-08-12T07:37:49.719Z,21.04
2022-08-12T07:40:18.990Z,21.03
2022-08-12T07:42:46.615Z,20.97
2022-08-12T07:45:14.119Z,20.92
2022-08-12T07:47:43.009Z,20.88
2022-08-12T07:50:13.920Z,20.96
2022-08-12T07:52:44.841Z,21.01
2022-08-12T07:55:13.399Z,21.14
2022-08-12T07:57:57.272Z,21.34
2022-08-12T08:00:33.858Z,21.47
2022-08-12T08:03:01.584Z,21.54
2022-08-12T08:05:45.985Z,21.62
2022-08-12T08:08:24.468Z,21.62
2022-08-12T08:11:16.791Z,21.66
2022-08-12T08:13:45.847Z,21.78
2022-08-12T08:16:16.187Z,21.79
2022-08-12T08:18:43.787Z,21.78
2022-08-12T08:21:11.205Z,21.81
2022-08-12T08:23:59.779Z,21.81
2022-08-12T08:26:32.281Z,21.85
2022-08-12T08:29:02.526Z,21.95
2022-08-12T08:31:31.872Z,22.08
2022-08-12T08:34:27.615Z,22.12
2022-08-12T08:36:49.980Z,22.11
2022-08-12T08:39:20.811Z,22.12
2022-08-12T08:42:19.114Z,22.23
2022-08-12T08:44:49.771Z,22.31
2022-08-12T08:47:25.988Z,22.39
2022-08-12T08:49:57.094Z,22.38
2022-08-12T08:52:40.331Z,22.42
2022-08-12T08:55:18.751Z,22.44
2022-08-12T08:57:53.794Z,22.50
2022-08-12T09:00:23.558Z,22.49
2022-08-12T09:02:59.412Z,22.48
2022-08-12T09:05:28.049Z,22.49
2022-08-12T09:08:14.508Z,22.56
2022-08-12T09:14:10.505Z,22.77
2022-08-12T09:16:42.894Z,22.82
2022-08-12T09:19:27.162Z,22.94
2022-08-12T09:22:03.051Z,23.04
2022-08-12T09:24:36.876Z,23.13
2022-08-12T09:27:05.886Z,23.28
2022-08-12T09:30:10.970Z,23.32
2022-08-12T09:32:31.336Z,23.31
2022-08-12T09:35:18.718Z,23.36
2022-08-12T09:37:59.117Z,23.51
2022-08-12T09:41:02.344Z,23.66
2022-08-12T09:43:38.584Z,23.64
2022-08-12T09:46:25.477Z,23.75
2022-08-12T09:48:56.315Z,23.74
2022-08-12T09:51:37.826Z,23.69
2022-08-12T09:54:33.310Z,23.73
2022-08-12T09:58:07.350Z,23.71
2022-08-12T10:00:13.153Z,23.63
2022-08-12T10:02:43.899Z,23.60
2022-08-12T10:05:17.881Z,23.55
2022-08-12T10:07:48.341Z,23.58
2022-08-12T10:10:22.579Z,23.68
2022-08-12T10:13:43.316Z,23.80
2022-08-12T10:16:24.976Z,23.78
2022-08-12T10:18:59.335Z,23.83
2022-08-12T10:21:37.531Z,23.82
2022-08-12T10:24:22.648Z,23.84
2022-08-12T10:27:14.383Z,23.84
2022-08-12T10:30:40.544Z,23.84
2022-08-12T10:32:44.243Z,23.89
2022-08-12T10:35:21.423Z,23.90
2022-08-12T10:38:34.154Z,23.86
2022-08-12T10:40:56.171Z,23.96
2022-08-12T10:43:55.684Z,24.06
2022-08-12T10:46:30.900Z,24.14
2022-08-12T10:49:06.840Z,24.12
2022-08-12T10:52:03.368Z,24.14
2022-08-12T10:54:33.087Z,24.15
2022-08-12T10:57:03.892Z,24.13
2022-08-12T11:00:01.362Z,24.13
2022-08-12T11:04:23.173Z,23.96
2022-08-12T11:07:08.744Z,24.10
2022-08-12T11:08:36.675Z,24.15
2022-08-12T11:10:49.701Z,24.17
2022-08-12T11:13:18.805Z,24.11
2022-08-12T11:16:18.878Z,24.10
2022-08-12T11:18:34.270Z,24.22
2022-08-12T11:21:05.739Z,24.21
2022-08-12T11:23:37.371Z,24.22
2022-08-12T11:26:08.967Z,24.28
2022-08-12T11:28:38.025Z,24.21
2022-08-12T11:31:12.347Z,24.40
2022-08-12T11:34:06.466Z,24.59
2022-08-12T11:36:31.004Z,24.67
2022-08-12T11:39:04.321Z,24.64
2022-08-12T11:41:34.139Z,24.59
2022-08-12T11:44:42.754Z,24.56
2022-08-12T11:46:52.950Z,24.44
2022-08-12T11:49:30.818Z,24.35
2022-08-12T11:52:01.689Z,24.41
2022-08-12T11:54:31.046Z,24.40
2022-08-12T11:57:03.035Z,24.39
2022-08-12T12:02:39.537Z,24.31
2022-08-12T12:05:08.070Z,24.11
2022-08-12T12:08:38.696Z,24.04
2022-08-12T12:10:31.921Z,23.98
2022-08-12T12:12:59.224Z,23.91
2022-08-12T12:15:41.219Z,23.83
2022-08-12T12:18:31.070Z,23.83
2022-08-12T12:21:08.480Z,23.77
2022-08-12T12:23:38.071Z,23.65
2022-08-12T12:26:06.894Z,23.66
2022-08-12T12:28:41.059Z,23.66
2022-08-12T12:32:11.009Z,23.71
2022-08-12T12:34:11.351Z,23.74
2022-08-12T12:36:58.563Z,23.78
2022-08-12T12:39:29.434Z,23.83
2022-08-12T12:42:45.341Z,23.86
2022-08-12T12:45:19.467Z,23.88
2022-08-12T12:47:55.029Z,23.90
2022-08-12T12:50:35.023Z,23.91
2022-08-12T12:53:08.645Z,23.80
2022-08-12T12:55:56.671Z,23.75
2022-08-12T12:58:25.667Z,23.74
2022-08-12T13:00:57.074Z,23.74
2022-08-12T13:03:24.451Z,23.84
2022-08-12T13:05:53.811Z,23.91
2022-08-12T13:08:28.543Z,24.03
2022-08-12T13:11:05.738Z,24.28
2022-08-12T13:14:08.878Z,24.57
2022-08-12T13:16:28.936Z,24.80
2022-08-12T13:19:01.643Z,24.91
2022-08-12T13:21:36.452Z,24.95
2022-08-12T13:24:09.830Z,24.92
2022-08-12T13:26:39.497Z,24.80
2022-08-12T13:29:11.348Z,24.74
2022-08-12T13:32:17.497Z,24.66
2022-08-12T13:34:34.925Z,24.61
2022-08-12T13:37:09.625Z,24.58
2022-08-12T13:39:39.179Z,24.49
2022-08-12T13:42:14.219Z,24.41
2022-08-12T13:44:43.283Z,24.33
2022-08-12T13:47:18.827Z,24.18
2022-08-12T13:50:32.101Z,24.06
2022-08-12T13:53:06.435Z,23.97
2022-08-12T13:56:24.048Z,23.98
2022-08-12T13:58:52.749Z,23.93
2022-08-12T14:01:21.517Z,23.89
2022-08-12T14:03:51.225Z,23.78
2022-08-12T14:06:20.757Z,23.74
2022-08-12T14:08:49.802Z,23.77
2022-08-12T14:11:19.142Z,23.82
2022-08-12T14:14:06.258Z,23.87
2022-08-12T14:16:46.760Z,23.95
2022-08-12T14:19:22.382Z,23.86
2022-08-12T14:21:59.049Z,23.79
2022-08-12T14:24:36.689Z,23.71
2022-08-12T14:27:11.812Z,23.76
2022-08-12T14:30:06.193Z,23.77
2022-08-12T14:32:37.147Z,23.79
2022-08-12T14:35:09.594Z,23.77
2022-08-12T14:37:56.932Z,23.88
2022-08-12T14:40:30.338Z,23.88
2022-08-12T14:42:58.159Z,23.90
2022-08-12T14:45:45.524Z,23.86
2022-08-12T14:48:16.160Z,23.76
2022-08-12T14:51:02.627Z,23.71
2022-08-12T14:59:56.736Z,23.69
2022-08-12T15:02:22.814Z,23.70
2022-08-12T15:04:58.215Z,23.67
2022-08-12T15:07:34.109Z,23.63
2022-08-12T15:10:31.354Z,23.58
2022-08-12T15:13:06.860Z,23.55
2022-08-12T15:15:45.555Z,23.57
2022-08-12T15:18:20.969Z,23.54
2022-08-12T15:21:00.135Z,23.53
2022-08-12T15:23:45.424Z,23.45
2022-08-12T15:26:20.893Z,23.43
2022-08-12T15:28:55.113Z,23.43
2022-08-12T15:31:28.263Z,23.43
2022-08-12T15:34:04.147Z,23.43
2022-08-12T15:36:53.775Z,23.41
2022-08-12T15:39:21.707Z,23.36
2022-08-12T15:41:55.510Z,23.37
2022-08-12T15:44:38.551Z,23.34
2022-08-12T15:47:10.373Z,23.30
2022-08-12T15:49:54.568Z,23.31
2022-08-12T15:52:28.552Z,23.30
2022-08-12T15:54:59.144Z,23.30
2022-08-12T15:57:33.540Z,23.29
2022-08-12T16:00:07.021Z,23.28
2022-08-12T16:02:43.898Z,23.22
2022-08-12T16:06:11.526Z,23.22
2022-08-12T16:08:17.418Z,23.21
2022-08-12T16:10:47.920Z,23.18
2022-08-12T16:13:32.686Z,23.14
2022-08-12T16:16:22.800Z,23.10
2022-08-12T16:18:59.488Z,23.09
2022-08-12T16:21:52.059Z,23.08
2022-08-12T16:24:18.210Z,23.05
2022-08-12T16:26:51.566Z,23.02
2022-08-12T16:29:49.436Z,22.97
2022-08-12T16:32:24.062Z,22.95
2022-08-12T16:34:56.546Z,22.96
2022-08-12T16:37:33.028Z,22.96
2022-08-12T16:40:13.949Z,22.94
2022-08-12T16:42:53.306Z,22.94
2022-08-12T16:45:24.305Z,22.94
2022-08-12T16:48:03.001Z,22.91
2022-08-12T16:50:31.510Z,22.90
2022-08-12T16:53:02.369Z,22.90
2022-08-12T16:55:42.475Z,22.91
2022-08-12T16:58:18.760Z,22.87
2022-08-12T17:01:02.423Z,22.84
2022-08-12T17:03:32.276Z,22.85
2022-08-12T17:06:05.925Z,22.84
2022-08-12T17:08:33.637Z,22.81
2022-08-12T17:11:01.177Z,22.78
2022-08-12T17:13:29.862Z,22.74
2022-08-12T17:16:06.206Z,22.71
2022-08-12T17:18:43.567Z,22.70
2022-08-12T17:21:41.029Z,22.66
2022-08-12T17:24:15.995Z,22.63
2022-08-12T17:26:44.801Z,22.60
2022-08-12T17:29:24.288Z,22.58
2022-08-12T17:32:10.676Z,22.54
2022-08-12T17:34:56.732Z,22.51
2022-08-12T17:37:24.359Z,22.47
2022-08-12T17:40:13.767Z,22.46
2022-08-12T17:42:43.048Z,22.43
2022-08-12T17:45:18.619Z,22.44
2022-08-12T17:48:00.078Z,22.44
2022-08-12T17:50:44.174Z,22.42
2022-08-12T17:53:18.461Z,22.41
2022-08-12T17:55:50.970Z,22.38
2022-08-12T17:58:35.838Z,22.37
2022-08-12T18:01:10.913Z,22.33
2022-08-12T18:04:05.449Z,22.32
2022-08-12T18:06:31.500Z,22.33
2022-08-12T18:09:09.366Z,22.34
2022-08-12T18:12:05.726Z,22.35
2022-08-12T18:14:37.363Z,22.38
2022-08-12T18:17:08.471Z,22.39
2022-08-12T18:20:06.007Z,22.42
2022-08-12T18:22:30.567Z,22.38
2022-08-12T18:25:06.300Z,22.35
2022-08-12T18:27:43.767Z,22.30
2022-08-12T18:30:29.235Z,22.26
2022-08-12T18:33:04.342Z,22.23
2022-08-12T18:35:47.318Z,22.20
2022-08-12T18:38:25.242Z,22.16
2022-08-12T18:41:21.469Z,22.13
2022-08-12T18:43:58.982Z,22.10
2022-08-12T18:46:54.130Z,22.08
2022-08-12T18:49:39.730Z,22.04
2022-08-12T18:52:30.447Z,22.01
2022-08-12T18:55:08.198Z,21.99
2022-08-12T18:58:06.769Z,21.97
2022-08-12T19:00:30.438Z,21.92
2022-08-12T19:03:00.556Z,21.91
2022-08-12T19:05:52.839Z,21.89
2022-08-12T19:08:15.695Z,21.84
2022-08-12T19:10:50.555Z,21.81
2022-08-12T19:13:42.887Z,21.72
2022-08-12T19:16:12.045Z,21.68
2022-08-12T19:18:45.042Z,21.65
2022-08-12T19:21:16.288Z,21.62
2022-08-12T19:24:05.018Z,21.58
2022-08-12T19:26:34.510Z,21.56
2022-08-12T19:29:04.564Z,21.53
2022-08-12T19:31:58.422Z,21.47
2022-08-12T19:36:07.858Z,21.39
2022-08-12T19:38:06.281Z,21.35
2022-08-12T19:40:34.870Z,21.35
2022-08-12T19:43:20.309Z,21.33
2022-08-12T19:45:52.618Z,21.32
2022-08-12T19:48:27.550Z,21.30
2022-08-12T19:50:56.348Z,21.31
2022-08-12T19:53:24.676Z,21.28
2022-08-12T19:55:53.985Z,21.31
2022-08-12T19:58:22.820Z,21.33
2022-08-12T20:00:52.800Z,21.33
2022-08-12T20:03:40.295Z,21.32
2022-08-12T20:06:16.262Z,21.32
2022-08-12T20:08:56.569Z,21.32
2022-08-12T20:12:10.209Z,21.30
2022-08-12T20:14:19.786Z,21.26
2022-08-12T20:16:57.852Z,21.26
2022-08-12T20:20:01.140Z,21.25
2022-08-12T20:22:29.824Z,21.26
2022-08-12T20:25:06.381Z,21.26
2022-08-12T20:28:02.442Z,21.28
2022-08-12T20:30:37.596Z,21.28
2022-08-12T20:33:18.492Z,21.28
2022-08-12T20:36:06.223Z,21.29
2022-08-12T20:38:50.671Z,21.29
2022-08-12T20:41:37.533Z,21.28
2022-08-12T20:44:17.003Z,21.26
2022-08-12T20:46:45.131Z,21.25
2022-08-12T20:49:14.790Z,21.26
2022-08-12T20:51:55.291Z,21.26
2022-08-12T20:54:32.535Z,21.26
2022-08-12T20:57:01.635Z,21.27
2022-08-12T20:59:31.889Z,21.27
2022-08-12T21:02:04.580Z,21.27
2022-08-12T21:04:51.261Z,21.24
2022-08-12T21:07:20.399Z,21.26
2022-08-12T21:09:52.507Z,21.25
2022-08-12T21:12:28.552Z,21.26
2022-08-12T21:15:22.839Z,21.24
2022-08-12T21:18:15.563Z,21.24
2022-08-12T21:20:51.851Z,21.24
2022-08-12T21:23:20.552Z,21.21
2022-08-12T21:25:49.011Z,21.23
2022-08-12T21:28:20.005Z,21.22
2022-08-12T21:31:11.526Z,21.18
2022-08-12T21:33:58.942Z,21.12
2022-08-12T21:36:34.139Z,21.11
2022-08-12T21:39:20.389Z,21.11
2022-08-12T21:41:52.744Z,21.06
2022-08-12T21:45:44.323Z,20.98
2022-08-12T21:47:19.982Z,20.92
2022-08-12T21:50:06.951Z,20.90
2022-08-12T21:52:41.074Z,20.88
2022-08-12T21:55:19.514Z,20.89
2022-08-12T21:57:53.262Z,20.87
2022-08-12T22:00:32.989Z,20.85
2022-08-12T22:04:04.009Z,20.84
2022-08-12T22:06:26.363Z,20.80
2022-08-12T22:09:02.310Z,20.79
2022-08-12T22:11:42.499Z,20.83
2022-08-12T22:14:17.996Z,20.80
2022-08-12T22:16:53.424Z,20.78
2022-08-12T22:19:21.501Z,20.80
2022-08-12T22:21:53.478Z,20.81
2022-08-12T22:24:26.681Z,20.81
2022-08-12T22:27:18.482Z,20.79
2022-08-12T22:30:16.970Z,20.80
2022-08-12T22:32:50.455Z,20.79
2022-08-12T22:35:55.954Z,20.80
2022-08-12T22:38:23.115Z,20.81
2022-08-12T22:41:00.942Z,20.79
2022-08-12T22:44:00.101Z,20.79
2022-08-12T22:46:38.171Z,20.75
2022-08-12T22:49:06.611Z,20.72
2022-08-12T22:51:57.652Z,20.68
2022-08-12T22:54:36.583Z,20.64
2022-08-12T22:57:12.093Z,20.60
2022-08-12T22:59:55.395Z,20.56
2022-08-12T23:02:28.804Z,20.53
2022-08-12T23:04:58.356Z,20.50
2022-08-12T23:07:26.017Z,20.49
2022-08-12T23:09:54.722Z,20.48
2022-08-12T23:12:46.846Z,20.48
2022-08-12T23:15:19.314Z,20.48
2022-08-12T23:17:46.706Z,20.47
2022-08-12T23:20:14.675Z,20.46
2022-08-12T23:22:55.849Z,20.46
2022-08-12T23:25:32.779Z,20.43
2022-08-12T23:28:31.022Z,20.44
2022-08-12T23:31:04.842Z,20.41
2022-08-12T23:34:00.532Z,20.42
2022-08-12T23:36:32.684Z,20.42
2022-08-12T23:40:13.536Z,20.42
2022-08-12T23:42:17.611Z,20.40
2022-08-12T23:44:47.708Z,20.36
2022-08-12T23:47:16.279Z,20.37
2022-08-12T23:49:58.128Z,20.36
2022-08-12T23:52:36.956Z,20.35
2022-08-12T23:55:24.739Z,20.34
2022-08-12T23:58:22.993Z,20.32
